Terminal Aerodrome Forecast
Issued by NWS

Home | Current Version | Previous Version | Text Only | Print | Product List | Glossary On
Versions: 1 2 3 4 5 6 7 8 9 10 11 12 13 14 15 16 17 18 19
215
FTUS41 KBGM 292330
TAFELM
TAF
KELM 292330Z 3000/3024 12004KT P6SM SCT050 BKN100
      TEMPO 3005/3008 5SM -SHRA BKN030 OVC060
     FM301500 24006KT P6SM SCT040
     FM301700 25010KT P6SM BKN050=

USA.gov is the U.S. government's official web portal to all federal, state and local government web resources and services.